Time;durP1;ratioP1;P1;durP2;ratioP2;P2;SDS_P1;SDS_P2;PMS_P1;PMS_P2;Temp;Humidity;BMP_temperature;BMP_pressure;BME280_temperature;BME280_humidity;BME280_pressure;Samples;Min_cycle;Max_cycle;Signal;HPM_P1;HPM_P2
2023/07/11 00:01:30;;;;;;;11.90;9.10;;;;;;;18.50;79.95;100771.77;105544;1257;70387;-48
2023/07/11 00:03:59;;;;;;;9.70;8.60;;;;;;;18.49;80.07;100781.92;105451;1257;69996;-48
2023/07/11 00:06:28;;;;;;;10.40;8.30;;;;;;;18.47;80.27;100785.21;105443;1253;73694;-48
2023/07/11 00:08:57;;;;;;;10.80;8.40;;;;;;;18.46;80.25;100786.17;105556;1257;83613;-48
2023/07/11 00:11:25;;;;;;;9.90;7.80;;;;;;;18.45;80.33;100788.37;105397;1253;73315;-48
2023/07/11 00:13:55;;;;;;;11.20;8.50;;;;;;;18.44;80.35;100792.88;105372;1256;70018;-50
2023/07/11 00:16:24;;;;;;;10.40;7.90;;;;;;;18.42;80.51;100794.06;105369;1254;70009;-48
2023/07/11 00:18:53;;;;;;;9.40;8.00;;;;;;;18.40;80.42;100794.88;105404;1253;75066;-48
2023/07/11 00:21:21;;;;;;;11.20;8.30;;;;;;;18.37;80.57;100791.70;105393;1254;83390;-48
2023/07/11 00:23:49;;;;;;;11.30;7.90;;;;;;;18.35;80.67;100792.89;105358;1254;72594;-49
2023/07/11 00:26:18;;;;;;;10.00;8.90;;;;;;;18.33;80.80;100796.91;105417;1257;70003;-49
2023/07/11 00:28:46;;;;;;;10.80;8.20;;;;;;;18.32;80.93;100796.10;105328;1254;70105;-49
2023/07/11 00:31:14;;;;;;;9.60;8.40;;;;;;;18.29;80.92;100792.93;105387;1257;75192;-47
2023/07/11 00:33:43;;;;;;;15.30;9.00;;;;;;;18.27;81.09;100800.29;105169;1258;83370;-49
2023/07/11 00:36:11;;;;;;;10.90;8.20;;;;;;;18.25;81.20;100802.16;105352;1257;73419;-48
2023/07/11 00:38:40;;;;;;;12.50;8.40;;;;;;;18.23;81.19;100805.48;105270;1254;70085;-48
2023/07/11 00:41:08;;;;;;;10.60;8.30;;;;;;;18.22;81.35;100805.05;105352;1253;69967;-50
2023/07/11 00:43:37;;;;;;;11.60;8.20;;;;;;;18.20;81.21;100804.95;105329;1253;73799;-49
2023/07/11 00:46:19;;;;;;;11.50;8.30;;;;;;;18.18;81.40;100802.99;105363;1257;83602;-49
2023/07/11 00:48:58;;;;;;;10.60;8.40;;;;;;;18.16;81.51;100800.43;105340;1257;72950;-48
2023/07/11 00:51:31;;;;;;;9.60;8.60;;;;;;;18.14;81.52;100808.19;105385;1254;71409;-49
2023/07/11 00:54:00;;;;;;;11.70;8.70;;;;;;;18.11;81.57;100809.60;105333;1261;70051;-49
2023/07/11 00:56:32;;;;;;;10.30;8.30;;;;;;;18.09;81.76;100805.83;105425;1257;73501;-49
2023/07/11 00:59:01;;;;;;;12.60;9.10;;;;;;;18.06;81.77;100802.83;105402;1258;83317;-49
2023/07/11 01:01:30;;;;;;;9.80;8.80;;;;;;;18.04;81.84;100807.04;105440;1257;73823;-48
2023/07/11 01:03:58;;;;;;;13.30;9.90;;;;;;;18.00;81.76;100806.73;105414;1253;69793;-48
2023/07/11 01:06:29;;;;;;;10.30;8.70;;;;;;;17.96;81.94;100805.43;105400;1257;69930;-48
2023/07/11 01:08:59;;;;;;;10.60;9.50;;;;;;;17.93;82.19;100809.81;105431;1257;75160;-48
2023/07/11 01:11:31;;;;;;;11.60;8.40;;;;;;;17.92;82.04;100808.83;105639;1257;81435;-47
2023/07/11 01:13:59;;;;;;;11.50;9.20;;;;;;;17.88;82.32;100806.59;105460;1258;73685;-49
2023/07/11 01:16:27;;;;;;;10.40;9.20;;;;;;;17.87;82.37;100806.66;105703;1256;70010;-48
2023/07/11 01:18:56;;;;;;;11.30;9.10;;;;;;;17.85;82.59;100802.36;105323;1253;70242;-50
2023/07/11 01:21:24;;;;;;;10.10;8.50;;;;;;;17.86;82.82;100800.38;105614;1253;74576;-49
2023/07/11 01:23:53;;;;;;;9.90;8.90;;;;;;;17.86;82.87;100799.50;105388;1257;83341;-49
2023/07/11 01:26:22;;;;;;;10.20;9.00;;;;;;;17.84;82.83;100805.41;105379;1256;73681;-48
2023/07/11 01:28:50;;;;;;;12.70;9.50;;;;;;;17.83;82.94;100802.84;105357;1258;70019;-49
2023/07/11 01:31:18;;;;;;;11.60;8.50;;;;;;;17.81;82.89;100809.65;105340;1256;69994;-49
2023/07/11 01:33:47;;;;;;;11.80;9.30;;;;;;;17.78;82.96;100811.77;105295;1253;74122;-49
2023/07/11 01:36:15;;;;;;;12.30;9.30;;;;;;;17.75;82.87;100812.30;105390;1253;83702;-50
2023/07/11 01:38:43;;;;;;;12.20;9.40;;;;;;;17.70;83.04;100813.86;105440;1257;73017;-47
2023/07/11 01:41:12;;;;;;;12.90;9.20;;;;;;;17.67;83.17;100810.31;105497;1256;69987;-48
2023/07/11 01:43:40;;;;;;;10.70;9.40;;;;;;;17.65;83.25;100805.50;105397;1253;69963;-49
2023/07/11 01:46:08;;;;;;;11.40;9.40;;;;;;;17.61;83.28;100807.84;105367;1253;74813;-48
2023/07/11 01:48:37;;;;;;;11.90;9.30;;;;;;;17.57;83.37;100810.75;105449;1253;82521;-49
2023/07/11 01:51:06;;;;;;;12.70;8.60;;;;;;;17.53;83.56;100809.20;105337;1258;73760;-49
2023/07/11 01:53:34;;;;;;;10.80;9.20;;;;;;;17.52;83.62;100811.93;105379;1253;70000;-49
2023/07/11 01:56:04;;;;;;;12.30;9.60;;;;;;;17.49;83.65;100813.52;105398;1256;69894;-49
2023/07/11 01:58:33;;;;;;;10.20;9.20;;;;;;;17.46;83.69;100812.83;105392;1253;74769;-49
2023/07/11 02:01:01;;;;;;;12.60;8.60;;;;;;;17.44;83.96;100808.52;105528;1253;83536;-48
2023/07/11 02:03:30;;;;;;;12.20;8.70;;;;;;;17.42;83.95;100808.96;105395;1257;73042;-48
2023/07/11 02:05:59;;;;;;;11.40;9.00;;;;;;;17.41;83.99;100809.95;105373;1257;69990;-48
2023/07/11 02:08:27;;;;;;;11.60;9.20;;;;;;;17.37;84.02;100809.08;105440;1257;69970;-49
2023/07/11 02:10:55;;;;;;;11.00;9.30;;;;;;;17.35;84.17;100806.36;105437;1257;73137;-48
2023/07/11 02:13:24;;;;;;;10.10;9.10;;;;;;;17.33;84.26;100808.25;105241;1258;83469;-49
2023/07/11 02:15:53;;;;;;;12.60;9.20;;;;;;;17.33;84.56;100813.40;105361;1256;73850;-50
2023/07/11 02:18:22;;;;;;;10.80;9.10;;;;;;;17.33;84.57;100810.38;105528;1253;69976;-47
2023/07/11 02:20:55;;;;;;;12.40;10.20;;;;;;;17.29;84.41;100809.89;105343;1258;69916;-47
2023/07/11 02:23:24;;;;;;;11.70;9.80;;;;;;;17.26;84.66;100811.85;105428;1257;74866;-48
2023/07/11 02:25:53;;;;;;;12.50;9.40;;;;;;;17.25;84.86;100814.23;105434;1253;82427;-49
2023/07/11 02:28:22;;;;;;;11.40;9.40;;;;;;;17.23;84.76;100810.81;105461;1254;72631;-49
2023/07/11 02:30:50;;;;;;;13.10;9.40;;;;;;;17.21;85.09;100814.80;105310;1254;164853;-49
2023/07/11 02:33:19;;;;;;;10.60;9.00;;;;;;;17.20;85.14;100814.14;105410;1256;69976;-49
2023/07/11 02:35:47;;;;;;;11.00;9.00;;;;;;;17.19;85.17;100814.37;105392;1253;74688;-50
2023/07/11 02:38:15;;;;;;;11.70;10.40;;;;;;;17.16;85.29;100815.21;105385;1254;83765;-50
2023/07/11 02:40:44;;;;;;;14.50;9.80;;;;;;;17.13;85.15;100809.41;105410;1253;73682;-48
2023/07/11 02:43:12;;;;;;;11.60;9.30;;;;;;;17.10;85.36;100809.26;105519;1256;70091;-48
2023/07/11 02:45:40;;;;;;;11.10;9.60;;;;;;;17.08;85.50;100811.30;105460;1253;69971;-48
2023/07/11 02:48:09;;;;;;;10.50;9.40;;;;;;;17.07;85.56;100808.17;105271;1253;73764;-48
2023/07/11 02:50:37;;;;;;;9.70;8.50;;;;;;;17.06;85.51;100809.33;105415;1257;83337;-48
2023/07/11 02:53:05;;;;;;;12.10;9.60;;;;;;;17.04;85.62;100809.11;105354;1253;72541;-48
2023/07/11 02:55:38;;;;;;;13.80;9.80;;;;;;;17.00;85.70;100808.77;105354;1257;69928;-48
2023/07/11 02:58:06;;;;;;;13.30;10.00;;;;;;;16.97;85.70;100808.59;105442;1253;70008;-49
2023/07/11 03:00:35;;;;;;;11.70;9.30;;;;;;;16.95;85.90;100810.98;105414;1253;74702;-48
2023/07/11 03:03:04;;;;;;;10.20;9.20;;;;;;;16.95;86.02;100814.36;105634;1257;83613;-49
2023/07/11 03:05:32;;;;;;;10.70;9.00;;;;;;;16.93;86.05;100812.70;105526;1257;73907;-49
2023/07/11 03:08:01;;;;;;;11.80;9.50;;;;;;;16.91;86.06;100811.93;105395;1257;69980;-48
2023/07/11 03:10:30;;;;;;;10.40;9.20;;;;;;;16.90;86.27;100811.27;105374;1254;69883;-48
2023/07/11 03:12:58;;;;;;;11.00;9.60;;;;;;;16.91;86.40;100813.14;105499;1253;73789;-48
2023/07/11 03:15:26;;;;;;;15.20;9.70;;;;;;;16.89;86.18;100811.16;105433;1254;81860;-48
2023/07/11 03:17:55;;;;;;;10.60;9.40;;;;;;;16.86;86.30;100815.05;105408;1253;74063;-49
2023/07/11 03:20:24;;;;;;;12.70;9.50;;;;;;;16.84;86.40;100816.06;105649;1256;70006;-50
2023/07/11 03:22:53;;;;;;;9.70;8.70;;;;;;;16.82;86.53;100812.80;105409;1257;69866;-49
2023/07/11 03:25:21;;;;;;;12.00;9.60;;;;;;;16.81;86.60;100816.39;105740;1257;73779;-48
2023/07/11 03:27:50;;;;;;;12.30;9.40;;;;;;;16.80;86.69;100816.63;105578;1253;83463;-47
2023/07/11 03:30:18;;;;;;;10.30;9.20;;;;;;;16.80;87.06;100821.38;105443;1253;73556;-48
2023/07/11 03:32:46;;;;;;;11.40;9.00;;;;;;;16.84;87.34;100821.88;105457;1253;69987;-48
2023/07/11 03:35:15;;;;;;;13.40;9.30;;;;;;;16.86;87.23;100821.22;105444;1257;70021;-49
2023/07/11 03:37:43;;;;;;;12.30;8.80;;;;;;;16.85;87.20;100819.31;105482;1257;73448;-49
2023/07/11 03:40:12;;;;;;;9.40;8.50;;;;;;;16.86;87.36;100825.27;105439;1256;83278;-49
2023/07/11 03:42:40;;;;;;;11.30;9.00;;;;;;;16.88;87.46;100826.92;105411;1253;72706;-49
2023/07/11 03:45:09;;;;;;;12.30;9.00;;;;;;;16.90;87.59;100825.61;105395;1257;70010;-48
2023/07/11 03:47:37;;;;;;;12.40;10.20;;;;;;;16.91;87.60;100833.28;105246;1258;70142;-49
2023/07/11 03:50:06;;;;;;;10.00;8.90;;;;;;;16.93;87.66;100832.99;105473;1253;74926;-48
2023/07/11 03:52:35;;;;;;;11.00;9.40;;;;;;;16.95;87.78;100828.63;105469;1258;83344;-49
2023/07/11 03:55:04;;;;;;;12.50;8.90;;;;;;;16.98;87.82;100828.86;105430;1253;73606;-51
2023/07/11 03:57:33;;;;;;;13.20;9.50;;;;;;;17.01;87.98;100834.31;105621;1253;69962;-48
2023/07/11 04:00:01;;;;;;;10.60;9.40;;;;;;;17.04;88.09;100837.32;105497;1255;70085;-48
2023/07/11 04:02:39;;;;;;;10.00;9.00;;;;;;;17.09;88.38;100839.34;105423;1255;74289;-49
2023/07/11 04:05:08;;;;;;;13.90;9.80;;;;;;;17.14;88.31;100836.04;105419;1257;83407;-48
2023/07/11 04:07:37;;;;;;;14.00;9.70;;;;;;;17.18;88.25;100836.69;105398;1256;73763;-48
2023/07/11 04:10:07;;;;;;;11.30;9.10;;;;;;;17.23;88.18;100835.36;105434;1257;70342;-48
2023/07/11 04:12:36;;;;;;;10.80;9.60;;;;;;;17.25;88.06;100838.63;105512;1253;69958;-48
2023/07/11 04:15:06;;;;;;;11.20;9.00;;;;;;;17.26;88.03;100842.73;105724;1253;74854;-48
2023/07/11 04:17:34;;;;;;;10.30;9.00;;;;;;;17.29;88.16;100850.17;105387;1255;83626;-48
2023/07/11 04:20:03;;;;;;;10.30;9.20;;;;;;;17.32;88.36;100853.36;105359;1257;74039;-51
2023/07/11 04:22:31;;;;;;;10.10;9.10;;;;;;;17.37;88.34;100852.90;105432;1257;70010;-47
2023/07/11 04:25:00;;;;;;;13.10;9.30;;;;;;;17.40;88.51;100855.00;105360;1257;69999;-48
2023/07/11 04:27:28;;;;;;;10.90;9.30;;;;;;;17.45;88.61;100860.41;105435;1256;74837;-48
2023/07/11 04:29:56;;;;;;;12.50;10.00;;;;;;;17.49;88.77;100862.06;105381;1253;82372;-48
2023/07/11 04:32:24;;;;;;;11.40;9.70;;;;;;;17.54;88.76;100865.48;105379;1257;73088;-48
2023/07/11 04:34:53;;;;;;;13.20;10.10;;;;;;;17.60;88.78;100864.27;105450;1253;70025;-48
2023/07/11 04:37:21;;;;;;;10.10;9.10;;;;;;;17.66;88.71;100868.20;105421;1253;70422;-48
2023/07/11 04:39:50;;;;;;;10.70;9.50;;;;;;;17.70;88.68;100870.77;105472;1255;74835;-48
2023/07/11 04:42:18;;;;;;;10.70;9.60;;;;;;;17.74;88.64;100868.20;105520;1253;82521;-47
2023/07/11 04:44:46;;;;;;;11.20;9.50;;;;;;;17.79;88.78;100871.99;105427;1253;72643;-49
2023/07/11 04:47:15;;;;;;;10.70;9.20;;;;;;;17.85;88.79;100870.06;105433;1253;69849;-48
2023/07/11 04:49:43;;;;;;;11.60;8.90;;;;;;;17.90;88.62;100874.02;105526;1256;70646;-47
2023/07/11 04:52:11;;;;;;;10.50;8.90;;;;;;;17.94;88.72;100873.77;105583;1253;74912;-48
2023/07/11 04:54:40;;;;;;;11.00;8.90;;;;;;;18.00;88.48;100879.58;105681;1257;83115;-47
2023/07/11 04:57:08;;;;;;;14.10;9.40;;;;;;;18.06;88.42;100882.62;105529;1257;73439;-48
2023/07/11 04:59:37;;;;;;;11.50;9.30;;;;;;;18.10;88.26;100879.86;105550;1253;70204;-49
2023/07/11 05:02:05;;;;;;;12.10;9.40;;;;;;;18.15;88.34;100878.35;105425;1256;70001;-47
2023/07/11 05:04:34;;;;;;;10.00;8.50;;;;;;;18.20;88.27;100875.73;105424;1254;74818;-47
2023/07/11 05:07:04;;;;;;;10.30;9.20;;;;;;;18.25;88.21;100876.33;105535;1257;83374;-47
2023/07/11 05:09:32;;;;;;;10.50;8.80;;;;;;;18.31;88.20;100877.55;105410;1257;72582;-48
2023/07/11 05:12:10;;;;;;;11.00;9.60;;;;;;;18.37;88.17;100881.93;105559;1257;70715;-47
2023/07/11 05:14:38;;;;;;;12.80;9.60;;;;;;;18.41;88.08;100876.02;105278;1256;69965;-47
2023/07/11 05:17:07;;;;;;;13.80;9.70;;;;;;;18.45;88.18;100877.90;105553;1253;73880;-48
2023/07/11 05:19:35;;;;;;;11.60;9.60;;;;;;;18.49;88.28;100877.98;105436;1253;82438;-48
2023/07/11 05:22:04;;;;;;;10.70;8.70;;;;;;;18.54;87.91;100881.07;105414;1253;73782;-47
2023/07/11 05:24:32;;;;;;;10.90;8.20;;;;;;;18.56;87.47;100874.53;105536;1253;69966;-48
2023/07/11 05:27:00;;;;;;;9.00;7.10;;;;;;;18.60;87.22;100871.14;105439;1257;69980;-47
2023/07/11 05:29:30;;;;;;;9.50;7.20;;;;;;;18.65;87.14;100872.06;105544;1253;74707;-51
2023/07/11 05:31:58;;;;;;;10.60;7.80;;;;;;;18.70;86.85;100872.29;105495;1253;82524;-47
2023/07/11 05:34:27;;;;;;;12.10;9.50;;;;;;;18.75;86.89;100874.98;105464;1253;72620;-48
2023/07/11 05:36:55;;;;;;;11.20;9.00;;;;;;;18.80;86.89;100870.77;105545;1253;70001;-48
2023/07/11 05:39:24;;;;;;;11.40;10.20;;;;;;;18.86;86.92;100868.98;105424;1257;69865;-47
2023/07/11 05:41:52;;;;;;;13.30;10.00;;;;;;;18.90;86.80;100872.09;105503;1257;74682;-47
2023/07/11 05:44:20;;;;;;;12.30;10.70;;;;;;;18.92;86.74;100868.92;105475;1253;82836;-47
2023/07/11 05:46:49;;;;;;;11.10;9.70;;;;;;;18.97;86.92;100871.29;105855;1253;72651;-47
2023/07/11 05:49:18;;;;;;;12.70;10.10;;;;;;;19.03;86.90;100868.76;105468;1253;69879;-49
2023/07/11 05:51:46;;;;;;;12.10;9.70;;;;;;;19.08;86.67;100867.21;105487;1257;70542;-47
2023/07/11 05:54:14;;;;;;;12.00;8.70;;;;;;;19.13;86.35;100870.26;105482;1257;73361;-47
2023/07/11 05:56:42;;;;;;;11.00;8.10;;;;;;;19.16;85.92;100869.30;105451;1254;83380;-47
2023/07/11 05:59:11;;;;;;;9.10;8.10;;;;;;;19.18;85.70;100868.13;105733;1253;73669;-49
2023/07/11 06:01:39;;;;;;;9.70;7.20;;;;;;;19.22;85.66;100868.76;105691;1257;69896;-47
2023/07/11 06:04:11;;;;;;;9.40;6.80;;;;;;;19.28;85.46;100871.00;105467;1254;70372;-49
2023/07/11 06:06:43;;;;;;;9.90;7.60;;;;;;;19.35;85.13;100867.02;105563;1257;74177;-47
2023/07/11 06:09:15;;;;;;;6.50;4.70;;;;;;;19.40;84.41;100871.29;105935;1255;83095;-48
2023/07/11 06:11:45;;;;;;;8.10;5.10;;;;;;;19.45;83.76;100875.04;105571;1253;72796;-51
2023/07/11 06:14:15;;;;;;;8.60;5.60;;;;;;;19.50;83.53;100874.89;105550;1257;69879;-48
2023/07/11 06:16:44;;;;;;;7.30;5.80;;;;;;;19.54;83.22;100876.02;105587;1258;69906;-47
2023/07/11 06:19:18;;;;;;;6.60;5.00;;;;;;;19.59;82.88;100874.99;105684;1256;74840;-47
2023/07/11 06:21:46;;;;;;;6.00;4.80;;;;;;;19.65;82.70;100873.38;105758;1255;82571;-48
2023/07/11 06:24:14;;;;;;;8.60;5.40;;;;;;;19.71;82.39;100869.08;105622;1253;73846;-46
2023/07/11 06:26:43;;;;;;;6.60;4.90;;;;;;;19.77;82.17;100868.13;105510;1253;69970;-47
2023/07/11 06:29:11;;;;;;;7.00;4.20;;;;;;;19.81;81.74;100872.95;105512;1257;70263;-48
2023/07/11 06:31:40;;;;;;;7.20;5.30;;;;;;;19.85;81.26;100866.35;105559;1257;74157;-47
2023/07/11 06:34:09;;;;;;;7.60;4.80;;;;;;;19.87;81.14;100866.75;105674;1257;83102;-47
2023/07/11 06:36:37;;;;;;;6.10;4.00;;;;;;;19.91;80.97;100866.25;105457;1253;72730;-47
2023/07/11 06:39:06;;;;;;;7.50;4.50;;;;;;;19.97;80.67;100868.74;105465;1253;69879;-47
2023/07/11 06:41:35;;;;;;;7.40;4.50;;;;;;;20.00;80.62;100867.80;105675;1253;69981;-48
2023/07/11 06:44:03;;;;;;;5.90;4.00;;;;;;;20.07;80.62;100869.48;105488;1256;75028;-47
2023/07/11 06:46:34;;;;;;;7.00;4.30;;;;;;;20.11;80.27;100870.42;105476;1253;83710;-47
2023/07/11 06:49:02;;;;;;;6.50;4.40;;;;;;;20.11;79.81;100866.66;105512;1253;72581;-47
2023/07/11 06:51:31;;;;;;;8.80;4.40;;;;;;;20.15;79.84;100867.33;105580;1253;70000;-47
2023/07/11 06:53:59;;;;;;;5.40;3.70;;;;;;;20.20;79.73;100872.41;105646;1256;70003;-47
2023/07/11 06:56:28;;;;;;;7.00;3.70;;;;;;;20.24;79.42;100866.46;105587;1253;75148;-46
2023/07/11 06:58:56;;;;;;;4.50;3.80;;;;;;;20.27;79.16;100863.02;105617;1253;82472;-47
2023/07/11 07:01:25;;;;;;;5.50;3.60;;;;;;;20.33;79.02;100856.98;105662;1254;73825;-51
2023/07/11 07:04:05;;;;;;;7.80;4.30;;;;;;;20.38;78.74;100857.69;105492;1253;69993;-47
2023/07/11 07:06:35;;;;;;;4.60;2.90;;;;;;;20.43;78.42;100858.02;105582;1253;70066;-46
2023/07/11 07:09:04;;;;;;;;;;;;;;;20.49;78.03;100856.73;105565;1253;74522;-46
2023/07/11 07:11:35;;;;;;;4.50;3.90;;;;;;;20.54;77.68;100859.64;105477;1253;83351;-46
2023/07/11 07:14:08;;;;;;;6.10;4.00;;;;;;;20.55;77.41;100861.16;105737;1257;72846;-47
2023/07/11 07:16:38;;;;;;;8.80;3.70;;;;;;;20.60;77.41;100857.60;105586;1253;69963;-48
2023/07/11 07:19:08;;;;;;;6.40;3.70;;;;;;;20.64;77.26;100856.02;105560;1256;69889;-46
2023/07/11 07:21:36;;;;;;;4.50;3.40;;;;;;;20.72;77.24;100855.09;105571;1253;75047;-47
2023/07/11 07:24:06;;;;;;;4.00;2.90;;;;;;;20.80;76.96;100849.54;105435;1257;83318;-48
2023/07/11 07:26:34;;;;;;;5.30;2.70;;;;;;;20.85;75.97;100844.40;105566;1253;73961;-47
2023/07/11 07:29:03;;;;;;;5.30;2.50;;;;;;;20.89;75.61;100845.01;105737;1253;69986;-46
2023/07/11 07:31:31;;;;;;;5.50;3.00;;;;;;;20.96;74.90;100847.69;105496;1258;69898;-46
2023/07/11 07:33:59;;;;;;;6.60;3.10;;;;;;;21.02;74.77;100844.58;105724;1253;74754;-46
2023/07/11 07:36:27;;;;;;;4.20;2.90;;;;;;;21.13;74.83;100846.05;105937;1257;83206;-47
2023/07/11 07:38:56;;;;;;;3.90;3.00;;;;;;;21.25;74.65;100841.60;105566;1257;73831;-46
2023/07/11 07:41:26;;;;;;;5.70;3.30;;;;;;;21.38;74.31;100842.65;105624;1253;69933;-47
2023/07/11 07:43:54;;;;;;;5.30;2.70;;;;;;;21.47;73.51;100839.61;105473;1253;69817;-50
2023/07/11 07:46:23;;;;;;;4.30;2.80;;;;;;;21.50;72.25;100838.16;105505;1253;74798;-47
2023/07/11 07:48:52;;;;;;;6.20;2.90;;;;;;;21.47;71.50;100837.14;105651;1257;83464;-46
2023/07/11 07:51:21;;;;;;;4.80;2.90;;;;;;;21.48;71.39;100839.58;105581;1253;73669;-47
2023/07/11 07:53:49;;;;;;;7.00;3.10;;;;;;;21.56;71.12;100836.42;105479;1256;69936;-46
2023/07/11 07:56:19;;;;;;;4.70;2.40;;;;;;;21.65;70.78;100837.77;105490;1256;69917;-46
2023/07/11 07:58:48;;;;;;;3.50;2.60;;;;;;;21.71;70.15;100835.70;105485;1253;75071;-46
2023/07/11 08:01:19;;;;;;;5.10;2.70;;;;;;;21.75;69.70;100838.93;105582;1253;82195;-46
2023/07/11 08:03:47;;;;;;;6.60;2.70;;;;;;;21.82;69.93;100836.25;105606;1253;72569;-47
2023/07/11 08:06:17;;;;;;;2.90;2.60;;;;;;;21.95;70.09;100838.27;105658;1257;69994;-46
2023/07/11 08:08:46;;;;;;;6.00;3.00;;;;;;;22.09;70.07;100830.75;105825;1253;70364;-46
2023/07/11 08:11:18;;;;;;;5.00;2.80;;;;;;;22.25;69.75;100831.49;105496;1258;73559;-46
2023/07/11 08:13:47;;;;;;;5.80;2.90;;;;;;;22.38;68.98;100829.95;105581;1257;83405;-46
2023/07/11 08:16:28;;;;;;;4.60;2.90;;;;;;;22.48;68.38;100829.31;105446;1253;72658;-46
2023/07/11 08:19:04;;;;;;;4.00;2.80;;;;;;;22.56;68.15;100825.27;105567;1257;70008;-46
2023/07/11 08:21:37;;;;;;;4.50;2.30;;;;;;;22.69;68.03;100828.88;105750;1253;69990;-47
2023/07/11 08:24:06;;;;;;;3.80;2.60;;;;;;;22.83;67.46;100825.41;105576;1253;74711;-46
2023/07/11 08:26:35;;;;;;;5.70;2.60;;;;;;;22.92;66.59;100828.04;105571;1253;83818;-47
2023/07/11 08:29:04;;;;;;;7.00;2.20;;;;;;;22.99;66.09;100822.52;105606;1257;73314;-46
2023/07/11 08:31:51;;;;;;;4.90;2.30;;;;;;;23.14;64.80;100821.30;105463;1253;69925;-46
2023/07/11 08:34:19;;;;;;;5.30;2.20;;;;;;;23.26;64.40;100825.09;105868;1257;69965;-47
2023/07/11 08:36:48;;;;;;;4.70;2.10;;;;;;;23.41;63.59;100827.55;105809;1257;73988;-46
2023/07/11 08:39:16;;;;;;;4.40;2.00;;;;;;;23.49;62.47;100823.11;105916;1253;83185;-47
2023/07/11 08:41:51;;;;;;;3.20;2.00;;;;;;;23.54;61.93;100820.02;105618;1255;73351;-46
2023/07/11 08:44:39;;;;;;;3.40;2.30;;;;;;;23.63;61.67;100819.68;105601;1258;69879;-49
2023/07/11 08:47:21;;;;;;;8.00;2.10;;;;;;;23.74;61.04;100813.55;105604;1257;70106;-47
2023/07/11 08:49:54;;;;;;;4.90;2.20;;;;;;;23.76;60.14;100811.58;105558;1253;74910;-46
2023/07/11 08:52:24;;;;;;;3.90;1.90;;;;;;;23.72;59.43;100809.26;105578;1257;83383;-47
2023/07/11 08:55:08;;;;;;;;;;;;;;;23.75;59.22;100801.36;105331;1253;73841;-46
2023/07/11 08:57:40;;;;;;;3.70;2.30;;;;;;;23.93;59.34;100800.11;105538;1253;69999;-48
2023/07/11 09:00:18;;;;;;;2.80;1.80;;;;;;;24.13;58.62;100794.50;105501;1257;69997;-46
2023/07/11 09:03:06;;;;;;;3.00;2.20;;;;;;;24.17;58.35;100789.80;105881;1256;74804;-46
2023/07/11 09:05:49;;;;;;;3.40;1.90;;;;;;;24.35;58.48;100786.27;105588;1257;83122;-47
2023/07/11 09:08:19;;;;;;;3.10;2.10;;;;;;;24.57;58.40;100791.10;105682;1253;72990;-49
2023/07/11 09:11:08;;;;;;;3.40;2.10;;;;;;;24.72;57.25;100784.02;105609;1252;69878;-51
2023/07/11 09:13:43;;;;;;;4.60;2.00;;;;;;;24.75;56.32;100784.17;105456;1256;69980;-49
2023/07/11 09:16:27;;;;;;;3.30;1.60;;;;;;;24.80;55.97;100781.21;105421;1257;74166;-48
2023/07/11 09:19:04;;;;;;;3.60;1.90;;;;;;;24.90;55.00;100777.05;105454;1253;83686;-48
2023/07/11 09:21:48;;;;;;;2.20;1.40;;;;;;;24.95;54.15;100775.69;105432;1253;73822;-48
2023/07/11 09:24:31;;;;;;;4.90;1.80;;;;;;;25.00;53.35;100774.53;105599;1253;69983;-47
2023/07/11 09:27:13;;;;;;;4.60;1.20;;;;;;;25.06;53.28;100770.40;105414;1253;69965;-47
2023/07/11 09:29:45;;;;;;;3.00;1.40;;;;;;;25.22;52.72;100767.16;105507;1257;75143;-47
2023/07/11 09:32:14;;;;;;;3.90;1.30;;;;;;;25.34;52.10;100764.98;105566;1253;83336;-48
2023/07/11 09:34:48;;;;;;;2.60;1.20;;;;;;;25.46;51.69;100769.59;105391;1253;72669;-47
2023/07/11 09:37:31;;;;;;;2.30;1.10;;;;;;;25.48;50.24;100771.20;105441;1253;70019;-50
2023/07/11 09:40:09;;;;;;;3.50;1.20;;;;;;;25.42;49.74;100771.17;105604;1253;69949;-48
2023/07/11 09:42:45;;;;;;;1.30;0.90;;;;;;;25.47;48.71;100773.45;105454;1257;74846;-48
2023/07/11 09:45:16;;;;;;;2.80;1.20;;;;;;;25.56;48.57;100774.01;105408;1257;83808;-50
2023/07/11 09:47:52;;;;;;;2.60;1.40;;;;;;;25.69;48.21;100766.87;105445;1257;73673;-48
2023/07/11 09:50:42;;;;;;;2.10;1.30;;;;;;;25.82;47.76;100763.96;105451;1258;70004;-51
2023/07/11 09:53:27;;;;;;;3.40;1.30;;;;;;;26.10;47.87;100763.36;105672;1257;69920;-49
2023/07/11 09:55:59;;;;;;;2.00;1.30;;;;;;;26.39;47.48;100761.22;105592;1257;74593;-49
2023/07/11 09:58:39;;;;;;;4.50;1.40;;;;;;;26.64;47.19;100754.50;105425;1257;83223;-49
2023/07/11 10:01:17;;;;;;;3.00;1.30;;;;;;;26.81;46.55;100752.01;105409;1258;73060;-49
2023/07/11 10:03:47;;;;;;;3.10;1.40;;;;;;;26.97;46.18;100746.02;105600;1253;69880;-48
2023/07/11 10:06:41;;;;;;;3.20;1.50;;;;;;;27.16;46.11;100751.03;105455;1256;69892;-47
2023/07/11 10:09:12;;;;;;;2.60;1.40;;;;;;;27.40;45.79;100749.48;105029;1262;75092;-47
2023/07/11 10:11:40;;;;;;;3.30;1.40;;;;;;;27.61;45.81;100743.58;105023;1262;83893;-47
2023/07/11 10:14:20;;;;;;;4.00;1.50;;;;;;;27.85;45.09;100739.11;104923;1262;72021;-47
2023/07/11 10:16:48;;;;;;;3.30;1.30;;;;;;;28.06;44.28;100739.99;104951;1260;70119;-47
2023/07/11 10:19:18;;;;;;;2.80;1.30;;;;;;;28.22;44.32;100739.52;104969;1260;69915;-46
2023/07/11 10:21:48;;;;;;;3.00;1.60;;;;;;;28.35;43.54;100735.48;105034;1262;74024;-46
2023/07/11 10:24:23;;;;;;;2.30;1.30;;;;;;;28.46;43.16;100729.80;105003;1260;84346;-48
2023/07/11 10:27:02;;;;;;;5.70;1.30;;;;;;;28.71;42.66;100731.40;105064;1253;73899;-46
2023/07/11 10:29:41;;;;;;;3.10;1.00;;;;;;;28.91;41.89;100729.27;105441;1258;69983;-47
2023/07/11 10:32:20;;;;;;;3.60;1.20;;;;;;;29.11;40.97;100729.02;105441;1253;69924;-47
2023/07/11 10:34:57;;;;;;;3.20;1.10;;;;;;;29.37;40.73;100721.79;105458;1258;74967;-47
2023/07/11 10:37:39;;;;;;;6.20;1.20;;;;;;;29.66;40.26;100724.85;105368;1256;83292;-47
2023/07/11 10:40:14;;;;;;;3.10;1.40;;;;;;;29.97;39.51;100728.20;105355;1257;72465;-48
2023/07/11 10:42:50;;;;;;;2.90;1.10;;;;;;;30.25;38.95;100721.80;105200;1253;70023;-48
2023/07/11 10:45:23;;;;;;;3.90;1.40;;;;;;;30.49;38.34;100719.02;105430;1253;69980;-47
2023/07/11 10:48:04;;;;;;;3.90;1.20;;;;;;;30.82;38.89;100712.79;105559;1253;74768;-47
2023/07/11 10:50:41;;;;;;;4.60;1.30;;;;;;;31.22;38.45;100715.80;105432;1253;82835;-47
2023/07/11 10:53:27;;;;;;;2.50;1.30;;;;;;;31.49;36.98;100710.10;105425;1253;72851;-47
2023/07/11 10:56:00;;;;;;;2.70;1.10;;;;;;;31.64;36.63;100702.81;105455;1253;69882;-48
2023/07/11 10:58:29;;;;;;;2.90;1.00;;;;;;;31.89;36.42;100702.82;105533;1253;69956;-47
2023/07/11 11:01:06;;;;;;;2.00;1.20;;;;;;;32.26;36.26;100697.77;105449;1253;73767;-48
2023/07/11 11:03:38;;;;;;;3.90;1.50;;;;;;;32.55;35.20;100696.32;105450;1257;83706;-47
2023/07/11 11:06:41;;;;;;;4.40;1.40;;;;;;;32.61;34.80;100691.80;105402;1253;72977;-48
2023/07/11 11:09:15;;;;;;;2.30;1.30;;;;;;;32.60;34.17;100694.27;105432;1253;69929;-48
2023/07/11 11:11:50;;;;;;;2.80;1.40;;;;;;;32.59;33.96;100691.57;105604;1253;69843;-47
2023/07/11 11:14:53;;;;;;;2.40;1.10;;;;;;;32.77;33.96;100687.89;105461;1253;74527;-46
2023/07/11 11:17:40;;;;;;;1.60;1.10;;;;;;;33.19;33.57;100682.20;105228;1253;83743;-47
2023/07/11 11:20:26;;;;;;;2.30;1.50;;;;;;;33.41;33.59;100681.95;105459;1258;72718;-47
2023/07/11 11:23:24;;;;;;;2.30;1.30;;;;;;;33.54;32.79;100678.59;105560;1257;69996;-47
2023/07/11 11:26:22;;;;;;;2.30;1.50;;;;;;;33.73;32.72;100678.81;105637;1257;69983;-47
2023/07/11 11:29:24;;;;;;;2.40;1.40;;;;;;;33.92;32.53;100675.18;105538;1253;75348;-49
2023/07/11 11:32:35;;;;;;;2.40;1.50;;;;;;;34.04;31.65;100678.75;105460;1253;82306;-49
2023/07/11 11:35:42;;;;;;;2.00;1.30;;;;;;;33.97;31.36;100674.86;105376;1253;73174;-47